sensor_id;sensor_type;location;lat;lon;timestamp;temperature;humidity
65034;DHT22;51601;51.356;12.458;2022-12-07T00:01:12;3.20;99.90
65034;DHT22;51601;51.356;12.458;2022-12-07T00:05:52;3.20;99.90
65034;DHT22;51601;51.356;12.458;2022-12-07T00:10:17;3.10;99.90
65034;DHT22;51601;51.356;12.458;2022-12-07T00:14:58;3.10;99.90
65034;DHT22;51601;51.356;12.458;2022-12-07T00:19:20;3.20;99.90
65034;DHT22;51601;51.356;12.458;2022-12-07T00:24:01;3.10;99.90
65034;DHT22;51601;51.356;12.458;2022-12-07T00:28:29;3.20;99.90
65034;DHT22;51601;51.356;12.458;2022-12-07T00:33:02;3.10;99.90
65034;DHT22;51601;51.356;12.458;2022-12-07T00:37:30;3.00;99.90
65034;DHT22;51601;51.356;12.458;2022-12-07T00:42:10;2.90;99.90
65034;DHT22;51601;51.356;12.458;2022-12-07T00:46:50;2.90;99.90
65034;DHT22;51601;51.356;12.458;2022-12-07T00:51:19;2.90;99.90
65034;DHT22;51601;51.356;12.458;2022-12-07T00:56:06;2.80;99.90
65034;DHT22;51601;51.356;12.458;2022-12-07T01:00:36;2.80;99.90
65034;DHT22;51601;51.356;12.458;2022-12-07T01:05:16;2.70;99.90
65034;DHT22;51601;51.356;12.458;2022-12-07T01:09:43;2.60;99.90
65034;DHT22;51601;51.356;12.458;2022-12-07T01:14:26;2.50;99.90
65034;DHT22;51601;51.356;12.458;2022-12-07T01:18:54;2.30;99.90
65034;DHT22;51601;51.356;12.458;2022-12-07T01:23:37;2.20;99.90
65034;DHT22;51601;51.356;12.458;2022-12-07T01:27:57;2.00;99.90
65034;DHT22;51601;51.356;12.458;2022-12-07T01:32:39;1.90;99.90
65034;DHT22;51601;51.356;12.458;2022-12-07T01:37:00;1.70;99.90
65034;DHT22;51601;51.356;12.458;2022-12-07T01:41:41;1.70;99.90
65034;DHT22;51601;51.356;12.458;2022-12-07T01:46:21;1.60;99.90
65034;DHT22;51601;51.356;12.458;2022-12-07T01:50:51;1.50;99.90
65034;DHT22;51601;51.356;12.458;2022-12-07T01:55:33;1.40;99.90
65034;DHT22;51601;51.356;12.458;2022-12-07T02:00:01;1.40;99.90
65034;DHT22;51601;51.356;12.458;2022-12-07T02:04:41;1.30;99.90
65034;DHT22;51601;51.356;12.458;2022-12-07T02:09:12;1.30;99.90
65034;DHT22;51601;51.356;12.458;2022-12-07T02:13:52;1.20;99.90
65034;DHT22;51601;51.356;12.458;2022-12-07T02:18:25;1.20;99.90
65034;DHT22;51601;51.356;12.458;2022-12-07T02:23:34;1.10;99.90
65034;DHT22;51601;51.356;12.458;2022-12-07T02:28:24;1.10;99.90
65034;DHT22;51601;51.356;12.458;2022-12-07T02:32:57;1.00;99.90
65034;DHT22;51601;51.356;12.458;2022-12-07T02:37:43;1.00;99.90
65034;DHT22;51601;51.356;12.458;2022-12-07T02:42:26;1.00;99.90
65034;DHT22;51601;51.356;12.458;2022-12-07T02:47:10;1.00;99.90
65034;DHT22;51601;51.356;12.458;2022-12-07T02:51:42;1.00;99.90
65034;DHT22;51601;51.356;12.458;2022-12-07T02:56:35;1.00;99.90
65034;DHT22;51601;51.356;12.458;2022-12-07T03:01:16;1.00;99.90
65034;DHT22;51601;51.356;12.458;2022-12-07T03:06:09;1.00;99.90
65034;DHT22;51601;51.356;12.458;2022-12-07T03:10:45;1.00;99.90
65034;DHT22;51601;51.356;12.458;2022-12-07T03:15:32;0.90;99.90
65034;DHT22;51601;51.356;12.458;2022-12-07T03:20:02;1.00;99.90
65034;DHT22;51601;51.356;12.458;2022-12-07T03:24:40;1.00;99.90
65034;DHT22;51601;51.356;12.458;2022-12-07T03:29:11;1.00;99.90
65034;DHT22;51601;51.356;12.458;2022-12-07T03:33:49;1.00;99.90
65034;DHT22;51601;51.356;12.458;2022-12-07T03:38:23;1.00;99.90
65034;DHT22;51601;51.356;12.458;2022-12-07T03:43:07;1.10;99.90
65034;DHT22;51601;51.356;12.458;2022-12-07T03:47:43;1.20;99.90
65034;DHT22;51601;51.356;12.458;2022-12-07T03:52:31;1.30;99.90
65034;DHT22;51601;51.356;12.458;2022-12-07T03:57:01;1.40;99.90
65034;DHT22;51601;51.356;12.458;2022-12-07T04:01:43;1.50;99.90
65034;DHT22;51601;51.356;12.458;2022-12-07T04:06:11;1.60;99.90
65034;DHT22;51601;51.356;12.458;2022-12-07T04:10:52;1.70;99.90
65034;DHT22;51601;51.356;12.458;2022-12-07T04:15:19;1.70;99.90
65034;DHT22;51601;51.356;12.458;2022-12-07T04:19:59;1.80;99.90
65034;DHT22;51601;51.356;12.458;2022-12-07T04:24:27;1.90;99.90
65034;DHT22;51601;51.356;12.458;2022-12-07T04:29:07;2.00;99.90
65034;DHT22;51601;51.356;12.458;2022-12-07T04:33:36;2.10;99.90
65034;DHT22;51601;51.356;12.458;2022-12-07T04:38:17;2.10;99.90
65034;DHT22;51601;51.356;12.458;2022-12-07T04:42:45;2.10;99.90
65034;DHT22;51601;51.356;12.458;2022-12-07T04:47:25;2.20;99.90
65034;DHT22;51601;51.356;12.458;2022-12-07T04:51:52;2.20;99.90
65034;DHT22;51601;51.356;12.458;2022-12-07T04:56:32;2.20;99.90
65034;DHT22;51601;51.356;12.458;2022-12-07T05:01:02;2.20;99.90
65034;DHT22;51601;51.356;12.458;2022-12-07T05:05:42;2.20;99.90
65034;DHT22;51601;51.356;12.458;2022-12-07T05:10:09;2.20;99.90
65034;DHT22;51601;51.356;12.458;2022-12-07T05:14:50;2.20;99.90
65034;DHT22;51601;51.356;12.458;2022-12-07T05:19:18;2.20;99.90
65034;DHT22;51601;51.356;12.458;2022-12-07T05:23:59;2.20;99.90
65034;DHT22;51601;51.356;12.458;2022-12-07T05:28:26;2.20;99.90
65034;DHT22;51601;51.356;12.458;2022-12-07T05:33:06;2.20;99.90
65034;DHT22;51601;51.356;12.458;2022-12-07T05:37:34;2.30;99.90
65034;DHT22;51601;51.356;12.458;2022-12-07T05:42:15;2.30;99.90
65034;DHT22;51601;51.356;12.458;2022-12-07T05:46:55;2.40;99.90
65034;DHT22;51601;51.356;12.458;2022-12-07T05:51:22;2.40;99.90
65034;DHT22;51601;51.356;12.458;2022-12-07T05:56:04;2.40;99.90
65034;DHT22;51601;51.356;12.458;2022-12-07T06:00:32;2.50;99.90
65034;DHT22;51601;51.356;12.458;2022-12-07T06:05:15;2.50;99.90
65034;DHT22;51601;51.356;12.458;2022-12-07T06:09:43;2.50;99.90
65034;DHT22;51601;51.356;12.458;2022-12-07T06:14:25;2.50;99.90
65034;DHT22;51601;51.356;12.458;2022-12-07T06:18:52;2.50;99.90
65034;DHT22;51601;51.356;12.458;2022-12-07T06:23:32;2.60;99.90
65034;DHT22;51601;51.356;12.458;2022-12-07T06:27:59;2.60;99.90
65034;DHT22;51601;51.356;12.458;2022-12-07T06:32:40;2.60;99.90
65034;DHT22;51601;51.356;12.458;2022-12-07T06:37:08;2.70;99.90
65034;DHT22;51601;51.356;12.458;2022-12-07T06:41:49;2.60;99.90
65034;DHT22;51601;51.356;12.458;2022-12-07T06:46:30;2.60;99.90
65034;DHT22;51601;51.356;12.458;2022-12-07T06:51:01;2.50;99.90
65034;DHT22;51601;51.356;12.458;2022-12-07T06:55:35;2.50;99.90
65034;DHT22;51601;51.356;12.458;2022-12-07T07:00:03;2.40;99.90
65034;DHT22;51601;51.356;12.458;2022-12-07T07:04:44;2.40;99.90
65034;DHT22;51601;51.356;12.458;2022-12-07T07:09:12;2.50;99.90
65034;DHT22;51601;51.356;12.458;2022-12-07T07:13:52;2.50;99.90
65034;DHT22;51601;51.356;12.458;2022-12-07T07:18:19;2.60;99.90
65034;DHT22;51601;51.356;12.458;2022-12-07T07:22:59;2.70;99.90
65034;DHT22;51601;51.356;12.458;2022-12-07T07:27:21;2.80;99.90
65034;DHT22;51601;51.356;12.458;2022-12-07T07:32:01;2.80;99.90
65034;DHT22;51601;51.356;12.458;2022-12-07T07:36:28;2.90;99.90
65034;DHT22;51601;51.356;12.458;2022-12-07T07:41:08;3.00;99.90
65034;DHT22;51601;51.356;12.458;2022-12-07T07:45:42;3.00;99.90
65034;DHT22;51601;51.356;12.458;2022-12-07T07:50:45;3.10;99.90
65034;DHT22;51601;51.356;12.458;2022-12-07T07:55:13;3.20;99.90
65034;DHT22;51601;51.356;12.458;2022-12-07T07:59:53;3.20;99.90
65034;DHT22;51601;51.356;12.458;2022-12-07T08:04:25;3.30;99.90
65034;DHT22;51601;51.356;12.458;2022-12-07T08:09:05;3.30;99.90
65034;DHT22;51601;51.356;12.458;2022-12-07T08:13:32;3.30;99.90
65034;DHT22;51601;51.356;12.458;2022-12-07T08:18:14;3.40;99.90
65034;DHT22;51601;51.356;12.458;2022-12-07T08:22:43;3.30;99.90
65034;DHT22;51601;51.356;12.458;2022-12-07T08:27:23;3.40;99.90
65034;DHT22;51601;51.356;12.458;2022-12-07T08:32:03;3.40;99.90
65034;DHT22;51601;51.356;12.458;2022-12-07T08:36:31;3.40;99.90
65034;DHT22;51601;51.356;12.458;2022-12-07T08:41:12;3.50;99.90
65034;DHT22;51601;51.356;12.458;2022-12-07T08:45:41;3.50;99.90
65034;DHT22;51601;51.356;12.458;2022-12-07T08:50:14;3.70;99.90
65034;DHT22;51601;51.356;12.458;2022-12-07T08:54:41;3.90;99.90
65034;DHT22;51601;51.356;12.458;2022-12-07T08:59:17;4.10;99.90
65034;DHT22;51601;51.356;12.458;2022-12-07T09:03:46;4.20;99.90
65034;DHT22;51601;51.356;12.458;2022-12-07T09:08:29;4.20;99.90
65034;DHT22;51601;51.356;12.458;2022-12-07T09:12:57;4.20;99.90
65034;DHT22;51601;51.356;12.458;2022-12-07T09:17:38;4.20;99.90
65034;DHT22;51601;51.356;12.458;2022-12-07T09:22:06;4.20;99.90
65034;DHT22;51601;51.356;12.458;2022-12-07T09:26:39;4.20;99.90
65034;DHT22;51601;51.356;12.458;2022-12-07T09:31:06;4.30;99.90
65034;DHT22;51601;51.356;12.458;2022-12-07T09:35:50;4.30;99.90
65034;DHT22;51601;51.356;12.458;2022-12-07T09:40:20;4.40;99.90
65034;DHT22;51601;51.356;12.458;2022-12-07T09:45:02;4.50;99.90
65034;DHT22;51601;51.356;12.458;2022-12-07T09:49:32;4.50;99.90
65034;DHT22;51601;51.356;12.458;2022-12-07T09:54:15;4.50;99.90
65034;DHT22;51601;51.356;12.458;2022-12-07T09:58:43;4.40;99.90
65034;DHT22;51601;51.356;12.458;2022-12-07T10:03:23;4.40;99.90
65034;DHT22;51601;51.356;12.458;2022-12-07T10:07:44;4.30;99.90
65034;DHT22;51601;51.356;12.458;2022-12-07T10:12:25;4.20;99.90
65034;DHT22;51601;51.356;12.458;2022-12-07T10:16:46;4.20;99.90
65034;DHT22;51601;51.356;12.458;2022-12-07T10:21:26;4.20;99.90
65034;DHT22;51601;51.356;12.458;2022-12-07T10:25:53;4.20;99.90
65034;DHT22;51601;51.356;12.458;2022-12-07T10:30:50;4.20;99.90
65034;DHT22;51601;51.356;12.458;2022-12-07T10:35:21;4.30;99.90
65034;DHT22;51601;51.356;12.458;2022-12-07T10:39:56;4.40;99.90
65034;DHT22;51601;51.356;12.458;2022-12-07T10:44:26;4.50;99.90
65034;DHT22;51601;51.356;12.458;2022-12-07T10:49:29;4.60;99.90
65034;DHT22;51601;51.356;12.458;2022-12-07T10:54:12;4.70;99.90
65034;DHT22;51601;51.356;12.458;2022-12-07T10:59:09;4.80;99.90
65034;DHT22;51601;51.356;12.458;2022-12-07T11:04:03;4.80;99.90
65034;DHT22;51601;51.356;12.458;2022-12-07T11:09:21;4.90;99.90
65034;DHT22;51601;51.356;12.458;2022-12-07T11:14:18;4.90;99.90
65034;DHT22;51601;51.356;12.458;2022-12-07T11:19:16;5.00;99.90
65034;DHT22;51601;51.356;12.458;2022-12-07T11:23:51;5.00;99.90
65034;DHT22;51601;51.356;12.458;2022-12-07T11:28:38;5.00;99.90
65034;DHT22;51601;51.356;12.458;2022-12-07T11:33:15;5.00;99.90
65034;DHT22;51601;51.356;12.458;2022-12-07T11:37:59;4.90;99.90
65034;DHT22;51601;51.356;12.458;2022-12-07T11:42:38;4.70;99.90
65034;DHT22;51601;51.356;12.458;2022-12-07T11:47:27;4.60;99.90
65034;DHT22;51601;51.356;12.458;2022-12-07T11:51:59;4.40;99.90
65034;DHT22;51601;51.356;12.458;2022-12-07T11:56:41;4.30;99.90
65034;DHT22;51601;51.356;12.458;2022-12-07T12:01:24;4.30;99.90
65034;DHT22;51601;51.356;12.458;2022-12-07T12:06:07;4.40;99.90
65034;DHT22;51601;51.356;12.458;2022-12-07T12:10:44;4.50;99.90
65034;DHT22;51601;51.356;12.458;2022-12-07T12:15:37;4.50;99.90
65034;DHT22;51601;51.356;12.458;2022-12-07T12:20:17;4.60;99.90
65034;DHT22;51601;51.356;12.458;2022-12-07T12:25:04;4.70;99.90
65034;DHT22;51601;51.356;12.458;2022-12-07T12:29:34;4.80;99.90
65034;DHT22;51601;51.356;12.458;2022-12-07T12:34:39;4.80;99.90
65034;DHT22;51601;51.356;12.458;2022-12-07T12:39:12;4.80;99.90
65034;DHT22;51601;51.356;12.458;2022-12-07T12:43:50;5.00;99.90
65034;DHT22;51601;51.356;12.458;2022-12-07T12:48:28;5.00;99.90
65034;DHT22;51601;51.356;12.458;2022-12-07T12:53:21;5.00;99.90
65034;DHT22;51601;51.356;12.458;2022-12-07T12:58:34;5.10;99.90
65034;DHT22;51601;51.356;12.458;2022-12-07T13:03:26;5.10;99.90
65034;DHT22;51601;51.356;12.458;2022-12-07T13:08:01;5.10;99.90
65034;DHT22;51601;51.356;12.458;2022-12-07T13:12:42;5.10;99.90
65034;DHT22;51601;51.356;12.458;2022-12-07T13:17:09;5.10;99.90
65034;DHT22;51601;51.356;12.458;2022-12-07T13:21:51;5.10;99.90
65034;DHT22;51601;51.356;12.458;2022-12-07T13:26:20;5.20;99.90
65034;DHT22;51601;51.356;12.458;2022-12-07T13:31:10;5.20;99.90
65034;DHT22;51601;51.356;12.458;2022-12-07T13:35:33;5.20;99.90
65034;DHT22;51601;51.356;12.458;2022-12-07T13:40:19;5.20;99.90
65034;DHT22;51601;51.356;12.458;2022-12-07T13:44:46;5.30;99.50
65034;DHT22;51601;51.356;12.458;2022-12-07T13:49:22;5.30;99.00
65034;DHT22;51601;51.356;12.458;2022-12-07T13:53:54;5.30;98.50
65034;DHT22;51601;51.356;12.458;2022-12-07T13:58:35;5.20;97.90
65034;DHT22;51601;51.356;12.458;2022-12-07T14:03:00;5.20;97.70
65034;DHT22;51601;51.356;12.458;2022-12-07T14:07:49;5.20;97.60
65034;DHT22;51601;51.356;12.458;2022-12-07T14:12:19;5.10;97.70
65034;DHT22;51601;51.356;12.458;2022-12-07T14:17:11;5.10;97.50
65034;DHT22;51601;51.356;12.458;2022-12-07T14:21:38;5.10;97.20
65034;DHT22;51601;51.356;12.458;2022-12-07T14:26:20;5.00;97.00
65034;DHT22;51601;51.356;12.458;2022-12-07T14:30:47;4.90;96.70
65034;DHT22;51601;51.356;12.458;2022-12-07T14:35:30;4.80;96.70
65034;DHT22;51601;51.356;12.458;2022-12-07T14:39:57;4.80;96.80
65034;DHT22;51601;51.356;12.458;2022-12-07T14:44:31;4.70;96.80
65034;DHT22;51601;51.356;12.458;2022-12-07T14:48:57;4.60;96.90
65034;DHT22;51601;51.356;12.458;2022-12-07T14:53:59;4.50;97.00
65034;DHT22;51601;51.356;12.458;2022-12-07T14:58:26;4.40;97.10
65034;DHT22;51601;51.356;12.458;2022-12-07T15:03:07;4.40;97.20
65034;DHT22;51601;51.356;12.458;2022-12-07T15:07:35;4.30;97.30
65034;DHT22;51601;51.356;12.458;2022-12-07T15:12:17;4.20;97.50
65034;DHT22;51601;51.356;12.458;2022-12-07T15:16:44;4.20;97.40
65034;DHT22;51601;51.356;12.458;2022-12-07T15:21:35;4.20;97.50
65034;DHT22;51601;51.356;12.458;2022-12-07T15:26:03;4.20;97.40
65034;DHT22;51601;51.356;12.458;2022-12-07T15:30:45;4.10;97.40
65034;DHT22;51601;51.356;12.458;2022-12-07T15:35:13;4.00;97.30
65034;DHT22;51601;51.356;12.458;2022-12-07T15:39:59;4.00;97.40
65034;DHT22;51601;51.356;12.458;2022-12-07T15:44:46;4.00;97.50
65034;DHT22;51601;51.356;12.458;2022-12-07T15:49:33;3.90;97.50
65034;DHT22;51601;51.356;12.458;2022-12-07T15:54:07;4.00;97.50
65034;DHT22;51601;51.356;12.458;2022-12-07T15:58:35;4.00;97.60
65034;DHT22;51601;51.356;12.458;2022-12-07T16:03:08;4.00;97.60
65034;DHT22;51601;51.356;12.458;2022-12-07T16:07:36;4.00;97.70
65034;DHT22;51601;51.356;12.458;2022-12-07T16:12:18;4.00;97.70
65034;DHT22;51601;51.356;12.458;2022-12-07T16:16:45;4.10;97.60
65034;DHT22;51601;51.356;12.458;2022-12-07T16:21:13;4.10;97.70
65034;DHT22;51601;51.356;12.458;2022-12-07T16:25:51;4.10;97.80
65034;DHT22;51601;51.356;12.458;2022-12-07T16:30:20;4.00;98.10
65034;DHT22;51601;51.356;12.458;2022-12-07T16:35:01;3.90;98.40
65034;DHT22;51601;51.356;12.458;2022-12-07T16:39:28;3.80;98.80
65034;DHT22;51601;51.356;12.458;2022-12-07T16:44:11;3.70;99.20
65034;DHT22;51601;51.356;12.458;2022-12-07T16:48:40;3.50;99.50
65034;DHT22;51601;51.356;12.458;2022-12-07T16:53:15;3.40;99.80
65034;DHT22;51601;51.356;12.458;2022-12-07T16:57:42;3.30;99.90
65034;DHT22;51601;51.356;12.458;2022-12-07T17:02:25;3.20;99.90
65034;DHT22;51601;51.356;12.458;2022-12-07T17:06:52;3.20;99.90
65034;DHT22;51601;51.356;12.458;2022-12-07T17:11:33;3.10;99.90
65034;DHT22;51601;51.356;12.458;2022-12-07T17:16:02;3.20;99.90
65034;DHT22;51601;51.356;12.458;2022-12-07T17:20:44;3.20;99.90
65034;DHT22;51601;51.356;12.458;2022-12-07T17:25:11;3.20;99.90
65034;DHT22;51601;51.356;12.458;2022-12-07T17:29:51;3.20;99.90
65034;DHT22;51601;51.356;12.458;2022-12-07T17:34:14;3.30;99.90
65034;DHT22;51601;51.356;12.458;2022-12-07T17:38:55;3.30;99.90
65034;DHT22;51601;51.356;12.458;2022-12-07T17:43:16;3.40;99.90
65034;DHT22;51601;51.356;12.458;2022-12-07T17:47:57;3.40;99.90
65034;DHT22;51601;51.356;12.458;2022-12-07T17:52:24;3.40;99.90
65034;DHT22;51601;51.356;12.458;2022-12-07T17:57:23;3.40;99.90
65034;DHT22;51601;51.356;12.458;2022-12-07T18:01:50;3.50;99.90
65034;DHT22;51601;51.356;12.458;2022-12-07T18:06:24;3.50;99.90
65034;DHT22;51601;51.356;12.458;2022-12-07T18:10:57;3.50;99.90
65034;DHT22;51601;51.356;12.458;2022-12-07T18:15:39;3.60;99.90
65034;DHT22;51601;51.356;12.458;2022-12-07T18:20:08;3.60;99.90
65034;DHT22;51601;51.356;12.458;2022-12-07T18:24:42;3.60;99.90
65034;DHT22;51601;51.356;12.458;2022-12-07T18:29:23;3.50;99.90
65034;DHT22;51601;51.356;12.458;2022-12-07T18:34:11;3.50;99.90
65034;DHT22;51601;51.356;12.458;2022-12-07T18:38:39;3.50;99.90
65034;DHT22;51601;51.356;12.458;2022-12-07T18:43:13;3.50;99.90
65034;DHT22;51601;51.356;12.458;2022-12-07T18:47:43;3.40;99.90
65034;DHT22;51601;51.356;12.458;2022-12-07T18:52:25;3.40;99.90
65034;DHT22;51601;51.356;12.458;2022-12-07T18:56:45;3.40;99.90
65034;DHT22;51601;51.356;12.458;2022-12-07T19:01:27;3.40;99.90
65034;DHT22;51601;51.356;12.458;2022-12-07T19:05:54;3.40;99.90
65034;DHT22;51601;51.356;12.458;2022-12-07T19:10:36;3.30;99.90
65034;DHT22;51601;51.356;12.458;2022-12-07T19:14:56;3.30;99.90
65034;DHT22;51601;51.356;12.458;2022-12-07T19:19:38;3.30;99.90
65034;DHT22;51601;51.356;12.458;2022-12-07T19:24:07;3.30;99.90
65034;DHT22;51601;51.356;12.458;2022-12-07T19:28:49;3.30;99.90
65034;DHT22;51601;51.356;12.458;2022-12-07T19:33:16;3.30;99.90
65034;DHT22;51601;51.356;12.458;2022-12-07T19:37:56;3.30;99.90
65034;DHT22;51601;51.356;12.458;2022-12-07T19:42:23;3.30;99.90
65034;DHT22;51601;51.356;12.458;2022-12-07T19:47:08;3.30;99.90
65034;DHT22;51601;51.356;12.458;2022-12-07T19:51:35;3.30;99.90
65034;DHT22;51601;51.356;12.458;2022-12-07T19:56:16;3.30;99.90
65034;DHT22;51601;51.356;12.458;2022-12-07T20:00:45;3.30;99.90
65034;DHT22;51601;51.356;12.458;2022-12-07T20:05:27;3.30;99.90
65034;DHT22;51601;51.356;12.458;2022-12-07T20:09:54;3.30;99.90
65034;DHT22;51601;51.356;12.458;2022-12-07T20:14:37;3.40;99.90
65034;DHT22;51601;51.356;12.458;2022-12-07T20:19:06;3.40;99.90
65034;DHT22;51601;51.356;12.458;2022-12-07T20:23:41;3.40;99.90
65034;DHT22;51601;51.356;12.458;2022-12-07T20:28:08;3.40;99.90
65034;DHT22;51601;51.356;12.458;2022-12-07T20:32:50;3.50;99.90
65034;DHT22;51601;51.356;12.458;2022-12-07T20:37:19;3.40;99.90
65034;DHT22;51601;51.356;12.458;2022-12-07T20:41:53;3.40;99.90
65034;DHT22;51601;51.356;12.458;2022-12-07T20:46:38;3.40;99.90
65034;DHT22;51601;51.356;12.458;2022-12-07T20:51:21;3.40;99.90
65034;DHT22;51601;51.356;12.458;2022-12-07T20:55:42;3.40;99.90
65034;DHT22;51601;51.356;12.458;2022-12-07T21:00:24;3.40;99.90
65034;DHT22;51601;51.356;12.458;2022-12-07T21:04:51;3.40;99.90
65034;DHT22;51601;51.356;12.458;2022-12-07T21:09:31;3.40;99.90
65034;DHT22;51601;51.356;12.458;2022-12-07T21:13:58;3.30;99.90
65034;DHT22;51601;51.356;12.458;2022-12-07T21:18:40;3.30;99.90
65034;DHT22;51601;51.356;12.458;2022-12-07T21:23:08;3.30;99.90
65034;DHT22;51601;51.356;12.458;2022-12-07T21:27:48;3.40;99.90
65034;DHT22;51601;51.356;12.458;2022-12-07T21:32:15;3.30;99.90
65034;DHT22;51601;51.356;12.458;2022-12-07T21:36:58;3.30;99.90
65034;DHT22;51601;51.356;12.458;2022-12-07T21:41:20;3.30;99.90
65034;DHT22;51601;51.356;12.458;2022-12-07T21:46:00;3.30;99.90
65034;DHT22;51601;51.356;12.458;2022-12-07T21:50:29;3.30;99.90
65034;DHT22;51601;51.356;12.458;2022-12-07T21:55:12;3.30;99.90
65034;DHT22;51601;51.356;12.458;2022-12-07T21:59:39;3.30;99.90
65034;DHT22;51601;51.356;12.458;2022-12-07T22:04:24;3.30;99.90
65034;DHT22;51601;51.356;12.458;2022-12-07T22:08:53;3.30;99.90
65034;DHT22;51601;51.356;12.458;2022-12-07T22:13:35;3.30;99.90
65034;DHT22;51601;51.356;12.458;2022-12-07T22:18:16;3.30;99.90
65034;DHT22;51601;51.356;12.458;2022-12-07T22:22:49;3.30;99.90
65034;DHT22;51601;51.356;12.458;2022-12-07T22:27:16;3.40;99.90
65034;DHT22;51601;51.356;12.458;2022-12-07T22:31:58;3.40;99.90
65034;DHT22;51601;51.356;12.458;2022-12-07T22:36:46;3.40;99.90
65034;DHT22;51601;51.356;12.458;2022-12-07T22:41:17;3.50;99.90
65034;DHT22;51601;51.356;12.458;2022-12-07T22:45:58;3.50;99.90
65034;DHT22;51601;51.356;12.458;2022-12-07T22:50:27;3.50;99.90
65034;DHT22;51601;51.356;12.458;2022-12-07T22:55:07;3.50;99.90
65034;DHT22;51601;51.356;12.458;2022-12-07T22:59:36;3.60;99.90
65034;DHT22;51601;51.356;12.458;2022-12-07T23:04:16;3.60;99.90
65034;DHT22;51601;51.356;12.458;2022-12-07T23:08:46;3.60;99.90
65034;DHT22;51601;51.356;12.458;2022-12-07T23:13:27;3.50;99.90
65034;DHT22;51601;51.356;12.458;2022-12-07T23:18:03;3.50;99.90
65034;DHT22;51601;51.356;12.458;2022-12-07T23:22:36;3.60;99.90
65034;DHT22;51601;51.356;12.458;2022-12-07T23:27:05;3.60;99.90
65034;DHT22;51601;51.356;12.458;2022-12-07T23:31:46;3.60;99.90
65034;DHT22;51601;51.356;12.458;2022-12-07T23:36:17;3.60;99.90
65034;DHT22;51601;51.356;12.458;2022-12-07T23:40:58;3.50;99.90
65034;DHT22;51601;51.356;12.458;2022-12-07T23:45:26;3.50;99.90
65034;DHT22;51601;51.356;12.458;2022-12-07T23:50:00;3.50;99.90
65034;DHT22;51601;51.356;12.458;2022-12-07T23:54:29;3.50;99.90
65034;DHT22;51601;51.356;12.458;2022-12-07T23:59:03;3.50;99.90
